sensor_id;sensor_type;location;lat;lon;timestamp;temperature;humidity
81136;DHT22;70622;50.886;3.890;2024-03-08T00:02:03;5.90;99.90
81136;DHT22;70622;50.886;3.890;2024-03-08T00:04:29;5.90;99.90
81136;DHT22;70622;50.886;3.890;2024-03-08T00:06:55;5.90;99.90
81136;DHT22;70622;50.886;3.890;2024-03-08T00:09:20;5.90;99.90
81136;DHT22;70622;50.886;3.890;2024-03-08T00:11:47;5.80;99.90
81136;DHT22;70622;50.886;3.890;2024-03-08T00:14:14;5.80;99.90
81136;DHT22;70622;50.886;3.890;2024-03-08T00:16:40;5.70;99.90
81136;DHT22;70622;50.886;3.890;2024-03-08T00:19:09;5.70;99.90
81136;DHT22;70622;50.886;3.890;2024-03-08T00:21:34;5.80;99.90
81136;DHT22;70622;50.886;3.890;2024-03-08T00:24:01;5.80;99.90
81136;DHT22;70622;50.886;3.890;2024-03-08T00:26:26;5.80;99.90
81136;DHT22;70622;50.886;3.890;2024-03-08T00:28:52;5.80;99.90
81136;DHT22;70622;50.886;3.890;2024-03-08T00:31:19;5.70;99.90
81136;DHT22;70622;50.886;3.890;2024-03-08T00:33:45;5.70;99.90
81136;DHT22;70622;50.886;3.890;2024-03-08T00:36:11;5.70;99.90
81136;DHT22;70622;50.886;3.890;2024-03-08T00:38:37;5.60;99.90
81136;DHT22;70622;50.886;3.890;2024-03-08T00:41:02;5.60;99.90
81136;DHT22;70622;50.886;3.890;2024-03-08T00:43:28;5.60;99.90
81136;DHT22;70622;50.886;3.890;2024-03-08T00:45:55;5.50;99.90
81136;DHT22;70622;50.886;3.890;2024-03-08T00:48:21;5.50;99.90
81136;DHT22;70622;50.886;3.890;2024-03-08T00:50:47;5.50;99.90
81136;DHT22;70622;50.886;3.890;2024-03-08T00:53:13;5.50;99.90
81136;DHT22;70622;50.886;3.890;2024-03-08T00:55:39;5.50;99.90
81136;DHT22;70622;50.886;3.890;2024-03-08T00:58:05;5.50;99.90
81136;DHT22;70622;50.886;3.890;2024-03-08T01:00:30;5.40;99.90
81136;DHT22;70622;50.886;3.890;2024-03-08T01:02:56;5.50;99.90
81136;DHT22;70622;50.886;3.890;2024-03-08T01:05:22;5.50;99.90
81136;DHT22;70622;50.886;3.890;2024-03-08T01:07:50;5.40;99.90
81136;DHT22;70622;50.886;3.890;2024-03-08T01:10:17;5.30;99.90
81136;DHT22;70622;50.886;3.890;2024-03-08T01:12:45;5.30;99.90
81136;DHT22;70622;50.886;3.890;2024-03-08T01:15:11;5.30;99.90
81136;DHT22;70622;50.886;3.890;2024-03-08T01:17:37;5.30;99.90
81136;DHT22;70622;50.886;3.890;2024-03-08T01:20:04;5.20;99.90
81136;DHT22;70622;50.886;3.890;2024-03-08T01:22:30;5.20;99.90
81136;DHT22;70622;50.886;3.890;2024-03-08T01:24:56;5.30;99.90
81136;DHT22;70622;50.886;3.890;2024-03-08T01:27:22;5.20;99.90
81136;DHT22;70622;50.886;3.890;2024-03-08T01:29:48;5.20;99.90
81136;DHT22;70622;50.886;3.890;2024-03-08T01:32:13;5.20;99.90
81136;DHT22;70622;50.886;3.890;2024-03-08T01:34:40;5.20;99.90
81136;DHT22;70622;50.886;3.890;2024-03-08T01:37:06;5.20;99.90
81136;DHT22;70622;50.886;3.890;2024-03-08T01:39:32;5.20;99.90
81136;DHT22;70622;50.886;3.890;2024-03-08T01:41:58;5.10;99.90
81136;DHT22;70622;50.886;3.890;2024-03-08T01:44:23;5.10;99.90
81136;DHT22;70622;50.886;3.890;2024-03-08T01:46:50;5.10;99.90
81136;DHT22;70622;50.886;3.890;2024-03-08T01:49:18;5.10;99.90
81136;DHT22;70622;50.886;3.890;2024-03-08T01:51:46;5.20;99.90
81136;DHT22;70622;50.886;3.890;2024-03-08T01:54:14;5.20;99.90
81136;DHT22;70622;50.886;3.890;2024-03-08T01:56:40;5.10;99.90
81136;DHT22;70622;50.886;3.890;2024-03-08T01:59:07;5.00;99.90
81136;DHT22;70622;50.886;3.890;2024-03-08T02:01:33;5.00;99.90
81136;DHT22;70622;50.886;3.890;2024-03-08T02:03:59;5.00;99.90
81136;DHT22;70622;50.886;3.890;2024-03-08T02:06:25;5.10;99.90
81136;DHT22;70622;50.886;3.890;2024-03-08T02:08:51;5.00;99.90
81136;DHT22;70622;50.886;3.890;2024-03-08T02:11:17;4.90;99.90
81136;DHT22;70622;50.886;3.890;2024-03-08T02:13:44;4.90;99.90
81136;DHT22;70622;50.886;3.890;2024-03-08T02:16:10;4.90;99.90
81136;DHT22;70622;50.886;3.890;2024-03-08T02:18:36;4.90;99.90
81136;DHT22;70622;50.886;3.890;2024-03-08T02:21:03;4.90;99.90
81136;DHT22;70622;50.886;3.890;2024-03-08T02:23:30;4.90;99.90
81136;DHT22;70622;50.886;3.890;2024-03-08T02:25:56;4.90;99.90
81136;DHT22;70622;50.886;3.890;2024-03-08T02:28:23;4.90;99.90
81136;DHT22;70622;50.886;3.890;2024-03-08T02:30:50;4.90;99.90
81136;DHT22;70622;50.886;3.890;2024-03-08T02:33:17;4.90;99.90
81136;DHT22;70622;50.886;3.890;2024-03-08T02:35:44;4.80;99.90
81136;DHT22;70622;50.886;3.890;2024-03-08T02:38:13;4.80;99.90
81136;DHT22;70622;50.886;3.890;2024-03-08T02:40:39;4.80;99.90
81136;DHT22;70622;50.886;3.890;2024-03-08T02:43:04;4.80;99.90
81136;DHT22;70622;50.886;3.890;2024-03-08T02:45:30;4.80;99.90
81136;DHT22;70622;50.886;3.890;2024-03-08T02:47:56;4.70;99.90
81136;DHT22;70622;50.886;3.890;2024-03-08T02:50:22;4.70;99.90
81136;DHT22;70622;50.886;3.890;2024-03-08T02:52:48;4.70;99.90
81136;DHT22;70622;50.886;3.890;2024-03-08T02:55:14;4.70;99.90
81136;DHT22;70622;50.886;3.890;2024-03-08T02:57:42;4.80;99.90
81136;DHT22;70622;50.886;3.890;2024-03-08T03:00:09;4.60;99.90
81136;DHT22;70622;50.886;3.890;2024-03-08T03:02:36;4.60;99.90
81136;DHT22;70622;50.886;3.890;2024-03-08T03:05:01;4.80;99.90
81136;DHT22;70622;50.886;3.890;2024-03-08T03:07:32;4.80;99.90
81136;DHT22;70622;50.886;3.890;2024-03-08T03:09:59;4.70;99.90
81136;DHT22;70622;50.886;3.890;2024-03-08T03:12:27;4.70;99.90
81136;DHT22;70622;50.886;3.890;2024-03-08T03:14:53;4.60;99.90
81136;DHT22;70622;50.886;3.890;2024-03-08T03:17:18;4.60;99.90
81136;DHT22;70622;50.886;3.890;2024-03-08T03:19:45;4.60;99.90
81136;DHT22;70622;50.886;3.890;2024-03-08T03:22:12;4.60;99.90
81136;DHT22;70622;50.886;3.890;2024-03-08T03:24:38;4.50;99.90
81136;DHT22;70622;50.886;3.890;2024-03-08T03:27:04;4.60;99.90
81136;DHT22;70622;50.886;3.890;2024-03-08T03:29:40;4.50;99.90
81136;DHT22;70622;50.886;3.890;2024-03-08T03:32:08;4.50;99.90
81136;DHT22;70622;50.886;3.890;2024-03-08T03:34:34;4.50;99.90
81136;DHT22;70622;50.886;3.890;2024-03-08T03:37:02;4.40;99.90
81136;DHT22;70622;50.886;3.890;2024-03-08T03:39:28;4.40;99.90
81136;DHT22;70622;50.886;3.890;2024-03-08T03:41:57;4.40;99.90
81136;DHT22;70622;50.886;3.890;2024-03-08T03:44:23;4.40;99.90
81136;DHT22;70622;50.886;3.890;2024-03-08T03:46:49;4.30;99.90
81136;DHT22;70622;50.886;3.890;2024-03-08T03:49:16;4.30;99.90
81136;DHT22;70622;50.886;3.890;2024-03-08T03:51:42;4.20;99.90
81136;DHT22;70622;50.886;3.890;2024-03-08T03:54:10;4.20;99.90
81136;DHT22;70622;50.886;3.890;2024-03-08T03:56:35;4.20;99.90
81136;DHT22;70622;50.886;3.890;2024-03-08T03:59:01;4.20;99.90
81136;DHT22;70622;50.886;3.890;2024-03-08T04:01:27;4.30;99.90
81136;DHT22;70622;50.886;3.890;2024-03-08T04:03:52;4.20;99.90
81136;DHT22;70622;50.886;3.890;2024-03-08T04:06:18;4.30;99.90
81136;DHT22;70622;50.886;3.890;2024-03-08T04:08:44;4.30;99.90
81136;DHT22;70622;50.886;3.890;2024-03-08T04:11:09;4.30;99.90
81136;DHT22;70622;50.886;3.890;2024-03-08T04:13:36;4.20;99.90
81136;DHT22;70622;50.886;3.890;2024-03-08T04:16:02;4.20;99.90
81136;DHT22;70622;50.886;3.890;2024-03-08T04:18:28;4.10;99.90
81136;DHT22;70622;50.886;3.890;2024-03-08T04:20:54;4.20;99.90
81136;DHT22;70622;50.886;3.890;2024-03-08T04:23:19;4.10;99.90
81136;DHT22;70622;50.886;3.890;2024-03-08T04:25:45;4.10;99.90
81136;DHT22;70622;50.886;3.890;2024-03-08T04:28:11;4.10;99.90
81136;DHT22;70622;50.886;3.890;2024-03-08T04:30:39;4.10;99.90
81136;DHT22;70622;50.886;3.890;2024-03-08T04:33:06;4.10;99.90
81136;DHT22;70622;50.886;3.890;2024-03-08T04:35:33;4.10;99.90
81136;DHT22;70622;50.886;3.890;2024-03-08T04:37:59;4.00;99.90
81136;DHT22;70622;50.886;3.890;2024-03-08T04:40:25;4.10;99.90
81136;DHT22;70622;50.886;3.890;2024-03-08T04:42:51;4.10;99.90
81136;DHT22;70622;50.886;3.890;2024-03-08T04:45:17;4.10;99.90
81136;DHT22;70622;50.886;3.890;2024-03-08T04:47:43;4.00;99.90
81136;DHT22;70622;50.886;3.890;2024-03-08T04:50:09;4.10;99.90
81136;DHT22;70622;50.886;3.890;2024-03-08T04:52:35;4.00;99.90
81136;DHT22;70622;50.886;3.890;2024-03-08T04:55:01;4.00;99.90
81136;DHT22;70622;50.886;3.890;2024-03-08T04:57:30;4.00;99.90
81136;DHT22;70622;50.886;3.890;2024-03-08T04:59:56;4.00;99.90
81136;DHT22;70622;50.886;3.890;2024-03-08T05:02:23;3.90;99.90
81136;DHT22;70622;50.886;3.890;2024-03-08T05:04:49;3.90;99.90
81136;DHT22;70622;50.886;3.890;2024-03-08T05:07:14;3.80;99.90
81136;DHT22;70622;50.886;3.890;2024-03-08T05:09:40;3.90;99.90
81136;DHT22;70622;50.886;3.890;2024-03-08T05:12:07;3.90;99.90
81136;DHT22;70622;50.886;3.890;2024-03-08T05:14:33;3.90;99.90
81136;DHT22;70622;50.886;3.890;2024-03-08T05:17:00;3.90;99.90
81136;DHT22;70622;50.886;3.890;2024-03-08T05:19:26;3.90;99.90
81136;DHT22;70622;50.886;3.890;2024-03-08T05:21:52;3.90;99.90
81136;DHT22;70622;50.886;3.890;2024-03-08T05:24:18;3.80;99.90
81136;DHT22;70622;50.886;3.890;2024-03-08T05:29:13;3.70;99.90
81136;DHT22;70622;50.886;3.890;2024-03-08T05:31:55;3.80;99.90
81136;DHT22;70622;50.886;3.890;2024-03-08T05:34:22;3.70;99.90
81136;DHT22;70622;50.886;3.890;2024-03-08T05:36:48;3.70;99.90
81136;DHT22;70622;50.886;3.890;2024-03-08T05:39:16;3.80;99.90
81136;DHT22;70622;50.886;3.890;2024-03-08T05:41:42;3.80;99.90
81136;DHT22;70622;50.886;3.890;2024-03-08T05:44:09;3.70;99.90
81136;DHT22;70622;50.886;3.890;2024-03-08T05:46:35;3.70;99.90
81136;DHT22;70622;50.886;3.890;2024-03-08T05:49:02;3.70;99.90
81136;DHT22;70622;50.886;3.890;2024-03-08T05:51:32;3.60;99.90
81136;DHT22;70622;50.886;3.890;2024-03-08T05:54:01;3.60;99.90
81136;DHT22;70622;50.886;3.890;2024-03-08T05:56:29;3.70;99.90
81136;DHT22;70622;50.886;3.890;2024-03-08T05:58:55;3.70;99.90
81136;DHT22;70622;50.886;3.890;2024-03-08T06:06:30;3.60;99.90
81136;DHT22;70622;50.886;3.890;2024-03-08T06:08:57;3.60;99.90
81136;DHT22;70622;50.886;3.890;2024-03-08T06:11:26;3.70;99.90
81136;DHT22;70622;50.886;3.890;2024-03-08T06:16:22;3.70;99.90
81136;DHT22;70622;50.886;3.890;2024-03-08T06:21:17;3.60;99.90
81136;DHT22;70622;50.886;3.890;2024-03-08T06:34:14;3.70;99.90
81136;DHT22;70622;50.886;3.890;2024-03-08T06:36:41;3.70;99.90
81136;DHT22;70622;50.886;3.890;2024-03-08T06:39:06;3.70;99.90
81136;DHT22;70622;50.886;3.890;2024-03-08T06:41:36;3.70;99.90
81136;DHT22;70622;50.886;3.890;2024-03-08T06:46:36;3.70;99.90
81136;DHT22;70622;50.886;3.890;2024-03-08T06:49:07;3.60;99.90
81136;DHT22;70622;50.886;3.890;2024-03-08T06:51:38;3.80;99.90
81136;DHT22;70622;50.886;3.890;2024-03-08T06:54:03;3.80;99.90
81136;DHT22;70622;50.886;3.890;2024-03-08T06:56:34;3.90;99.90
81136;DHT22;70622;50.886;3.890;2024-03-08T06:59:02;3.80;99.90
81136;DHT22;70622;50.886;3.890;2024-03-08T07:01:30;3.80;99.90
81136;DHT22;70622;50.886;3.890;2024-03-08T08:05:33;5.00;99.90
81136;DHT22;70622;50.886;3.890;2024-03-08T08:08:11;5.10;99.90
81136;DHT22;70622;50.886;3.890;2024-03-08T08:10:37;5.20;99.90
81136;DHT22;70622;50.886;3.890;2024-03-08T08:24:23;5.20;99.90
81136;DHT22;70622;50.886;3.890;2024-03-08T09:55:43;7.50;99.90
81136;DHT22;70622;50.886;3.890;2024-03-08T10:00:51;7.60;99.90
81136;DHT22;70622;50.886;3.890;2024-03-08T10:03:42;7.70;99.90
81136;DHT22;70622;50.886;3.890;2024-03-08T10:06:12;7.90;99.90
81136;DHT22;70622;50.886;3.890;2024-03-08T10:34:49;8.60;99.90
81136;DHT22;70622;50.886;3.890;2024-03-08T10:57:50;9.10;99.10
81136;DHT22;70622;50.886;3.890;2024-03-08T11:06:54;9.20;98.90
81136;DHT22;70622;50.886;3.890;2024-03-08T11:10:45;9.30;99.20
81136;DHT22;70622;50.886;3.890;2024-03-08T11:19:01;9.60;97.20
81136;DHT22;70622;50.886;3.890;2024-03-08T11:30:29;9.70;97.40
81136;DHT22;70622;50.886;3.890;2024-03-08T12:41:47;11.10;94.90
81136;DHT22;70622;50.886;3.890;2024-03-08T14:08:23;12.80;85.90
81136;DHT22;70622;50.886;3.890;2024-03-08T14:10:50;12.80;86.40
81136;DHT22;70622;50.886;3.890;2024-03-08T14:13:18;12.80;83.80
81136;DHT22;70622;50.886;3.890;2024-03-08T14:15:45;12.80;84.40
81136;DHT22;70622;50.886;3.890;2024-03-08T14:18:11;12.80;86.30
81136;DHT22;70622;50.886;3.890;2024-03-08T14:20:41;12.80;86.80
81136;DHT22;70622;50.886;3.890;2024-03-08T14:23:08;12.90;85.70
81136;DHT22;70622;50.886;3.890;2024-03-08T14:25:42;13.00;88.20
81136;DHT22;70622;50.886;3.890;2024-03-08T14:28:33;13.00;89.40
81136;DHT22;70622;50.886;3.890;2024-03-08T14:39:16;13.20;86.70
81136;DHT22;70622;50.886;3.890;2024-03-08T14:41:48;13.40;86.70
81136;DHT22;70622;50.886;3.890;2024-03-08T14:44:14;13.60;84.70
81136;DHT22;70622;50.886;3.890;2024-03-08T14:46:41;13.50;84.30
81136;DHT22;70622;50.886;3.890;2024-03-08T14:49:08;13.50;84.10
81136;DHT22;70622;50.886;3.890;2024-03-08T14:51:35;13.60;85.50
81136;DHT22;70622;50.886;3.890;2024-03-08T14:54:00;13.40;83.10
81136;DHT22;70622;50.886;3.890;2024-03-08T14:56:26;13.50;81.90
81136;DHT22;70622;50.886;3.890;2024-03-08T14:58:53;13.50;83.30
81136;DHT22;70622;50.886;3.890;2024-03-08T15:01:19;13.60;82.40
81136;DHT22;70622;50.886;3.890;2024-03-08T15:20:46;15.00;74.80
81136;DHT22;70622;50.886;3.890;2024-03-08T15:28:31;16.40;68.00
81136;DHT22;70622;50.886;3.890;2024-03-08T15:34:08;17.20;63.70
81136;DHT22;70622;50.886;3.890;2024-03-08T15:36:37;16.80;61.70
81136;DHT22;70622;50.886;3.890;2024-03-08T15:39:17;17.00;62.30
81136;DHT22;70622;50.886;3.890;2024-03-08T15:41:46;17.40;60.20
81136;DHT22;70622;50.886;3.890;2024-03-08T15:44:12;17.80;60.20
81136;DHT22;70622;50.886;3.890;2024-03-08T15:46:39;18.20;59.00
81136;DHT22;70622;50.886;3.890;2024-03-08T15:49:06;18.20;57.60
81136;DHT22;70622;50.886;3.890;2024-03-08T15:51:35;17.90;56.80
81136;DHT22;70622;50.886;3.890;2024-03-08T15:54:07;17.90;56.90
81136;DHT22;70622;50.886;3.890;2024-03-08T15:56:35;17.50;57.10
81136;DHT22;70622;50.886;3.890;2024-03-08T15:59:01;16.70;59.40
81136;DHT22;70622;50.886;3.890;2024-03-08T16:01:39;16.80;60.40
81136;DHT22;70622;50.886;3.890;2024-03-08T16:04:08;16.80;60.80
81136;DHT22;70622;50.886;3.890;2024-03-08T16:06:37;16.70;60.40
81136;DHT22;70622;50.886;3.890;2024-03-08T16:09:05;16.50;60.50
81136;DHT22;70622;50.886;3.890;2024-03-08T16:11:38;16.40;62.00
81136;DHT22;70622;50.886;3.890;2024-03-08T16:14:04;16.10;62.50
81136;DHT22;70622;50.886;3.890;2024-03-08T16:16:30;16.00;63.80
81136;DHT22;70622;50.886;3.890;2024-03-08T16:18:57;16.10;64.10
81136;DHT22;70622;50.886;3.890;2024-03-08T16:21:23;16.20;63.60
81136;DHT22;70622;50.886;3.890;2024-03-08T16:23:48;16.40;63.20
81136;DHT22;70622;50.886;3.890;2024-03-08T16:26:16;16.40;62.30
81136;DHT22;70622;50.886;3.890;2024-03-08T16:28:43;16.40;62.90
81136;DHT22;70622;50.886;3.890;2024-03-08T16:31:09;16.00;64.50
81136;DHT22;70622;50.886;3.890;2024-03-08T16:33:37;15.80;65.00
81136;DHT22;70622;50.886;3.890;2024-03-08T16:36:03;15.80;66.20
81136;DHT22;70622;50.886;3.890;2024-03-08T16:38:29;15.70;65.40
81136;DHT22;70622;50.886;3.890;2024-03-08T16:40:55;15.60;66.00
81136;DHT22;70622;50.886;3.890;2024-03-08T16:43:21;15.30;67.70
81136;DHT22;70622;50.886;3.890;2024-03-08T16:45:48;14.80;68.70
81136;DHT22;70622;50.886;3.890;2024-03-08T16:48:16;14.50;71.60
81136;DHT22;70622;50.886;3.890;2024-03-08T16:50:41;14.20;73.60
81136;DHT22;70622;50.886;3.890;2024-03-08T16:53:07;14.00;74.70
81136;DHT22;70622;50.886;3.890;2024-03-08T16:55:33;13.60;76.80
81136;DHT22;70622;50.886;3.890;2024-03-08T16:58:00;13.50;79.10
81136;DHT22;70622;50.886;3.890;2024-03-08T17:00:26;13.20;80.50
81136;DHT22;70622;50.886;3.890;2024-03-08T17:02:54;13.00;81.30
81136;DHT22;70622;50.886;3.890;2024-03-08T17:05:20;12.70;83.90
81136;DHT22;70622;50.886;3.890;2024-03-08T17:07:47;12.70;84.00
81136;DHT22;70622;50.886;3.890;2024-03-08T17:10:15;12.60;84.90
81136;DHT22;70622;50.886;3.890;2024-03-08T17:12:45;12.50;85.90
81136;DHT22;70622;50.886;3.890;2024-03-08T17:15:13;12.30;86.60
81136;DHT22;70622;50.886;3.890;2024-03-08T17:17:40;12.20;87.50
81136;DHT22;70622;50.886;3.890;2024-03-08T17:20:09;12.10;87.90
81136;DHT22;70622;50.886;3.890;2024-03-08T17:22:42;12.10;89.00
81136;DHT22;70622;50.886;3.890;2024-03-08T17:25:08;12.00;88.80
81136;DHT22;70622;50.886;3.890;2024-03-08T17:27:35;11.80;89.90
81136;DHT22;70622;50.886;3.890;2024-03-08T17:30:03;11.70;90.00
81136;DHT22;70622;50.886;3.890;2024-03-08T17:32:41;11.60;90.30
81136;DHT22;70622;50.886;3.890;2024-03-08T17:35:07;11.50;90.90
81136;DHT22;70622;50.886;3.890;2024-03-08T17:37:37;11.40;91.00
81136;DHT22;70622;50.886;3.890;2024-03-08T17:40:03;11.40;91.00
81136;DHT22;70622;50.886;3.890;2024-03-08T17:42:34;11.40;91.20
81136;DHT22;70622;50.886;3.890;2024-03-08T17:44:59;11.40;91.10
81136;DHT22;70622;50.886;3.890;2024-03-08T17:47:26;11.40;91.20
81136;DHT22;70622;50.886;3.890;2024-03-08T17:49:54;11.30;91.30
81136;DHT22;70622;50.886;3.890;2024-03-08T17:52:20;11.10;92.00
81136;DHT22;70622;50.886;3.890;2024-03-08T17:54:46;11.00;92.10
81136;DHT22;70622;50.886;3.890;2024-03-08T17:57:12;11.00;92.00
81136;DHT22;70622;50.886;3.890;2024-03-08T17:59:39;11.00;92.10
81136;DHT22;70622;50.886;3.890;2024-03-08T18:02:05;10.90;92.20
81136;DHT22;70622;50.886;3.890;2024-03-08T18:04:31;10.80;92.30
81136;DHT22;70622;50.886;3.890;2024-03-08T18:06:57;10.70;92.60
81136;DHT22;70622;50.886;3.890;2024-03-08T18:09:22;10.60;93.00
81136;DHT22;70622;50.886;3.890;2024-03-08T18:11:49;10.60;93.10
81136;DHT22;70622;50.886;3.890;2024-03-08T18:14:16;10.60;92.90
81136;DHT22;70622;50.886;3.890;2024-03-08T18:16:42;10.60;93.00
81136;DHT22;70622;50.886;3.890;2024-03-08T18:19:10;10.60;93.00
81136;DHT22;70622;50.886;3.890;2024-03-08T18:21:40;10.70;92.90
81136;DHT22;70622;50.886;3.890;2024-03-08T18:24:06;10.50;93.10
81136;DHT22;70622;50.886;3.890;2024-03-08T18:26:32;10.50;92.90
81136;DHT22;70622;50.886;3.890;2024-03-08T18:29:00;10.50;92.90
81136;DHT22;70622;50.886;3.890;2024-03-08T18:31:28;10.50;93.20
81136;DHT22;70622;50.886;3.890;2024-03-08T18:33:56;10.40;93.20
81136;DHT22;70622;50.886;3.890;2024-03-08T18:36:23;10.40;93.30
81136;DHT22;70622;50.886;3.890;2024-03-08T18:38:48;10.40;93.20
81136;DHT22;70622;50.886;3.890;2024-03-08T18:41:14;10.30;93.40
81136;DHT22;70622;50.886;3.890;2024-03-08T18:43:40;10.30;93.60
81136;DHT22;70622;50.886;3.890;2024-03-08T18:46:06;10.20;93.80
81136;DHT22;70622;50.886;3.890;2024-03-08T18:48:31;10.10;94.10
81136;DHT22;70622;50.886;3.890;2024-03-08T18:50:57;10.20;94.10
81136;DHT22;70622;50.886;3.890;2024-03-08T18:53:25;10.20;94.20
81136;DHT22;70622;50.886;3.890;2024-03-08T18:55:51;10.10;94.20
81136;DHT22;70622;50.886;3.890;2024-03-08T18:58:17;10.10;94.20
81136;DHT22;70622;50.886;3.890;2024-03-08T19:00:44;10.10;94.10
81136;DHT22;70622;50.886;3.890;2024-03-08T19:03:15;10.10;94.30
81136;DHT22;70622;50.886;3.890;2024-03-08T19:05:42;9.90;94.60
81136;DHT22;70622;50.886;3.890;2024-03-08T19:08:10;9.90;94.70
81136;DHT22;70622;50.886;3.890;2024-03-08T19:10:38;9.80;94.90
81136;DHT22;70622;50.886;3.890;2024-03-08T19:13:04;9.80;95.30
81136;DHT22;70622;50.886;3.890;2024-03-08T19:15:31;9.70;95.40
81136;DHT22;70622;50.886;3.890;2024-03-08T19:17:59;9.70;95.40
81136;DHT22;70622;50.886;3.890;2024-03-08T19:20:26;9.80;95.30
81136;DHT22;70622;50.886;3.890;2024-03-08T19:22:55;9.80;95.20
81136;DHT22;70622;50.886;3.890;2024-03-08T19:25:25;9.70;95.50
81136;DHT22;70622;50.886;3.890;2024-03-08T19:27:55;9.60;95.90
81136;DHT22;70622;50.886;3.890;2024-03-08T19:30:22;9.70;95.60
81136;DHT22;70622;50.886;3.890;2024-03-08T19:32:53;9.70;95.60
81136;DHT22;70622;50.886;3.890;2024-03-08T19:35:23;9.80;95.60
81136;DHT22;70622;50.886;3.890;2024-03-08T19:37:51;9.80;95.60
81136;DHT22;70622;50.886;3.890;2024-03-08T19:40:20;9.80;95.50
81136;DHT22;70622;50.886;3.890;2024-03-08T19:45:23;10.00;95.30
81136;DHT22;70622;50.886;3.890;2024-03-08T19:47:53;10.10;95.20
81136;DHT22;70622;50.886;3.890;2024-03-08T19:50:19;10.10;95.20
81136;DHT22;70622;50.886;3.890;2024-03-08T19:52:48;10.10;95.30
81136;DHT22;70622;50.886;3.890;2024-03-08T19:55:16;10.10;95.50
81136;DHT22;70622;50.886;3.890;2024-03-08T19:57:44;10.10;95.20
81136;DHT22;70622;50.886;3.890;2024-03-08T20:00:13;10.20;95.20
81136;DHT22;70622;50.886;3.890;2024-03-08T20:02:42;10.00;95.60
81136;DHT22;70622;50.886;3.890;2024-03-08T20:05:09;10.10;95.60
81136;DHT22;70622;50.886;3.890;2024-03-08T20:07:39;10.10;95.80
81136;DHT22;70622;50.886;3.890;2024-03-08T20:10:05;10.10;95.80
81136;DHT22;70622;50.886;3.890;2024-03-08T20:12:36;10.10;96.10
81136;DHT22;70622;50.886;3.890;2024-03-08T20:15:04;10.00;96.30
81136;DHT22;70622;50.886;3.890;2024-03-08T20:17:34;10.10;96.30
81136;DHT22;70622;50.886;3.890;2024-03-08T20:20:01;10.10;96.20
81136;DHT22;70622;50.886;3.890;2024-03-08T20:22:26;10.10;96.20
81136;DHT22;70622;50.886;3.890;2024-03-08T20:24:52;10.20;96.10
81136;DHT22;70622;50.886;3.890;2024-03-08T20:27:18;10.40;95.70
81136;DHT22;70622;50.886;3.890;2024-03-08T20:29:43;10.40;95.80
81136;DHT22;70622;50.886;3.890;2024-03-08T20:32:09;10.40;95.80
81136;DHT22;70622;50.886;3.890;2024-03-08T20:34:37;10.40;96.10
81136;DHT22;70622;50.886;3.890;2024-03-08T20:37:03;10.40;96.40
81136;DHT22;70622;50.886;3.890;2024-03-08T20:39:34;10.40;96.90
81136;DHT22;70622;50.886;3.890;2024-03-08T20:42:00;10.30;97.20
81136;DHT22;70622;50.886;3.890;2024-03-08T20:44:26;10.40;97.10
81136;DHT22;70622;50.886;3.890;2024-03-08T20:46:51;10.40;97.40
81136;DHT22;70622;50.886;3.890;2024-03-08T20:49:17;10.30;97.30
81136;DHT22;70622;50.886;3.890;2024-03-08T20:51:45;10.40;97.30
81136;DHT22;70622;50.886;3.890;2024-03-08T20:54:11;10.50;97.10
81136;DHT22;70622;50.886;3.890;2024-03-08T20:56:36;10.40;96.70
81136;DHT22;70622;50.886;3.890;2024-03-08T20:59:02;10.50;96.30
81136;DHT22;70622;50.886;3.890;2024-03-08T21:01:28;10.40;96.30
81136;DHT22;70622;50.886;3.890;2024-03-08T21:03:57;10.50;96.30
81136;DHT22;70622;50.886;3.890;2024-03-08T21:06:23;10.50;96.10
81136;DHT22;70622;50.886;3.890;2024-03-08T21:08:49;10.40;96.30
81136;DHT22;70622;50.886;3.890;2024-03-08T21:11:15;10.50;96.30
81136;DHT22;70622;50.886;3.890;2024-03-08T21:13:41;10.40;96.30
81136;DHT22;70622;50.886;3.890;2024-03-08T21:16:07;10.30;96.70
81136;DHT22;70622;50.886;3.890;2024-03-08T21:18:34;10.20;97.20
81136;DHT22;70622;50.886;3.890;2024-03-08T21:21:02;10.10;97.20
81136;DHT22;70622;50.886;3.890;2024-03-08T21:23:28;10.10;97.20
81136;DHT22;70622;50.886;3.890;2024-03-08T21:25:53;10.10;97.00
81136;DHT22;70622;50.886;3.890;2024-03-08T21:28:19;10.00;97.30
81136;DHT22;70622;50.886;3.890;2024-03-08T21:30:47;10.10;97.40
81136;DHT22;70622;50.886;3.890;2024-03-08T21:33:12;10.10;97.20
81136;DHT22;70622;50.886;3.890;2024-03-08T21:35:39;10.10;97.10
81136;DHT22;70622;50.886;3.890;2024-03-08T21:38:06;10.10;97.00
81136;DHT22;70622;50.886;3.890;2024-03-08T21:40:32;10.20;96.90
81136;DHT22;70622;50.886;3.890;2024-03-08T21:43:01;10.30;96.80
81136;DHT22;70622;50.886;3.890;2024-03-08T21:45:29;10.20;96.90
81136;DHT22;70622;50.886;3.890;2024-03-08T21:47:56;10.10;97.20
81136;DHT22;70622;50.886;3.890;2024-03-08T21:50:25;10.20;97.40
81136;DHT22;70622;50.886;3.890;2024-03-08T21:52:53;10.20;97.30
81136;DHT22;70622;50.886;3.890;2024-03-08T21:55:18;10.20;97.50
81136;DHT22;70622;50.886;3.890;2024-03-08T21:57:45;10.10;97.60
81136;DHT22;70622;50.886;3.890;2024-03-08T22:00:12;10.00;97.80
81136;DHT22;70622;50.886;3.890;2024-03-08T22:02:40;10.00;97.80
81136;DHT22;70622;50.886;3.890;2024-03-08T22:05:06;10.20;97.70
81136;DHT22;70622;50.886;3.890;2024-03-08T22:07:34;10.20;97.40
81136;DHT22;70622;50.886;3.890;2024-03-08T22:10:02;10.20;97.10
81136;DHT22;70622;50.886;3.890;2024-03-08T22:12:29;10.20;97.00
81136;DHT22;70622;50.886;3.890;2024-03-08T22:14:56;10.20;97.20
81136;DHT22;70622;50.886;3.890;2024-03-08T22:17:22;10.10;97.40
81136;DHT22;70622;50.886;3.890;2024-03-08T22:19:49;10.10;97.40
81136;DHT22;70622;50.886;3.890;2024-03-08T22:22:16;10.10;97.50
81136;DHT22;70622;50.886;3.890;2024-03-08T22:24:43;10.10;97.60
81136;DHT22;70622;50.886;3.890;2024-03-08T22:27:14;10.10;97.60
81136;DHT22;70622;50.886;3.890;2024-03-08T22:29:41;10.10;97.50
81136;DHT22;70622;50.886;3.890;2024-03-08T22:32:07;10.10;97.50
81136;DHT22;70622;50.886;3.890;2024-03-08T22:34:34;10.10;97.50
81136;DHT22;70622;50.886;3.890;2024-03-08T22:37:01;10.10;97.50
81136;DHT22;70622;50.886;3.890;2024-03-08T22:39:26;10.10;97.40
81136;DHT22;70622;50.886;3.890;2024-03-08T22:41:53;10.10;97.50
81136;DHT22;70622;50.886;3.890;2024-03-08T22:44:20;10.20;97.40
81136;DHT22;70622;50.886;3.890;2024-03-08T22:46:47;10.10;97.60
81136;DHT22;70622;50.886;3.890;2024-03-08T22:49:13;10.10;97.80
81136;DHT22;70622;50.886;3.890;2024-03-08T22:51:39;10.10;98.00
81136;DHT22;70622;50.886;3.890;2024-03-08T22:54:04;10.10;97.80
81136;DHT22;70622;50.886;3.890;2024-03-08T22:56:30;10.10;97.80
81136;DHT22;70622;50.886;3.890;2024-03-08T22:58:56;10.00;98.10
81136;DHT22;70622;50.886;3.890;2024-03-08T23:01:22;10.00;98.30
81136;DHT22;70622;50.886;3.890;2024-03-08T23:03:48;10.00;98.50
81136;DHT22;70622;50.886;3.890;2024-03-08T23:06:14;10.00;98.40